createdAt,value
2022-09-15T00:01:16.518Z,78.61
2022-09-15T00:03:43.971Z,76.62
2022-09-15T00:06:13.239Z,76.95
2022-09-15T00:08:41.646Z,78.84
2022-09-15T00:13:46.546Z,77.01
2022-09-15T00:16:15.756Z,78.00
2022-09-15T00:18:45.959Z,77.11
2022-09-15T00:21:20.915Z,77.92
2022-09-15T00:23:49.974Z,80.67
2022-09-15T00:26:24.667Z,81.11
2022-09-15T00:28:53.233Z,80.72
2022-09-15T00:31:25.427Z,81.15
2022-09-15T00:33:59.187Z,82.12
2022-09-15T00:36:51.694Z,81.82
2022-09-15T00:39:19.359Z,82.25
2022-09-15T00:41:49.034Z,82.72
2022-09-15T00:47:17.790Z,80.02
2022-09-15T00:49:50.720Z,81.10
2022-09-15T00:58:10.085Z,81.66
2022-09-15T01:00:46.126Z,82.81
2022-09-15T01:03:14.187Z,82.72
2022-09-15T01:05:50.852Z,82.74
2022-09-15T01:08:35.231Z,82.89
2022-09-15T01:11:03.258Z,82.32
2022-09-15T01:13:30.724Z,80.97
2022-09-15T01:20:01.834Z,83.56
2022-09-15T01:31:03.522Z,83.08
2022-09-15T01:34:06.237Z,83.80
2022-09-15T01:36:51.479Z,83.90
2022-09-15T01:39:30.012Z,84.38
2022-09-15T01:42:16.166Z,83.62
2022-09-15T01:44:58.955Z,82.71
2022-09-15T01:47:30.527Z,84.08
2022-09-15T01:50:10.520Z,83.24
2022-09-15T01:52:45.464Z,81.05
2022-09-15T01:55:27.042Z,80.58
2022-09-15T01:57:54.371Z,79.83
2022-09-15T02:00:21.840Z,79.33
2022-09-15T02:03:00.219Z,79.61
2022-09-15T02:05:45.535Z,77.42
2022-09-15T02:08:28.474Z,77.69
2022-09-15T02:11:19.467Z,77.41
2022-09-15T02:14:22.274Z,75.75
2022-09-15T02:16:54.303Z,74.38
2022-09-15T02:19:36.562Z,73.41
2022-09-15T02:22:31.263Z,74.13
2022-09-15T02:27:51.440Z,74.39
2022-09-15T02:30:21.254Z,73.21
2022-09-15T02:32:58.556Z,72.09
2022-09-15T02:35:33.356Z,69.82
2022-09-15T02:38:03.440Z,69.20
2022-09-15T02:40:32.632Z,67.99
2022-09-15T02:43:03.675Z,68.42
2022-09-15T02:45:32.213Z,64.90
2022-09-15T02:48:00.228Z,65.90
2022-09-15T02:50:27.538Z,66.40
2022-09-15T02:52:56.214Z,67.18
2022-09-15T02:55:28.991Z,68.42
2022-09-15T02:57:58.507Z,68.50
2022-09-15T03:00:28.367Z,67.98
2022-09-15T03:02:56.706Z,67.21
2022-09-15T03:05:29.925Z,68.86
2022-09-15T03:07:57.899Z,70.74
2022-09-15T03:10:26.574Z,71.74
2022-09-15T03:12:55.446Z,70.15
2022-09-15T03:15:26.638Z,70.35
2022-09-15T03:17:55.228Z,69.96
2022-09-15T03:20:30.261Z,66.68
2022-09-15T03:22:57.972Z,66.82
2022-09-15T03:25:27.019Z,66.65
2022-09-15T03:27:54.457Z,66.18
2022-09-15T03:30:21.862Z,68.21
2022-09-15T03:32:49.583Z,67.13
2022-09-15T03:35:17.198Z,66.25
2022-09-15T03:37:44.618Z,66.54
2022-09-15T03:40:11.990Z,66.85
2022-09-15T03:42:39.409Z,66.98
2022-09-15T03:45:07.700Z,66.87
2022-09-15T03:47:35.223Z,66.48
2022-09-15T03:50:02.516Z,66.79
2022-09-15T03:52:32.125Z,66.66
2022-09-15T03:54:59.787Z,66.56
2022-09-15T03:57:27.108Z,66.88
2022-09-15T03:59:54.462Z,65.70
2022-09-15T04:02:22.198Z,66.54
2022-09-15T04:04:49.781Z,65.97
2022-09-15T04:07:17.121Z,64.51
2022-09-15T04:09:44.571Z,63.44
2022-09-15T04:12:11.799Z,61.55
2022-09-15T04:14:39.191Z,61.82
2022-09-15T04:17:06.566Z,62.74
2022-09-15T04:19:33.913Z,64.00
2022-09-15T04:22:01.171Z,62.32
2022-09-15T04:24:28.579Z,61.87
2022-09-15T04:26:55.835Z,61.82
2022-09-15T04:29:23.369Z,62.59
2022-09-15T04:31:52.951Z,62.65
2022-09-15T04:34:20.288Z,63.53
2022-09-15T04:36:48.397Z,63.09
2022-09-15T04:39:15.882Z,61.80
2022-09-15T04:41:43.550Z,58.99
2022-09-15T04:44:10.924Z,60.22
2022-09-15T04:46:38.329Z,60.23
2022-09-15T04:49:05.790Z,61.42
2022-09-15T04:51:36.162Z,61.48
2022-09-15T04:54:03.915Z,61.85
2022-09-15T04:56:31.356Z,60.57
2022-09-15T04:59:03.897Z,59.48
2022-09-15T05:01:35.540Z,58.01
2022-09-15T05:04:04.953Z,59.16
2022-09-15T05:06:35.023Z,58.81
2022-09-15T05:09:10.268Z,58.79
2022-09-15T05:11:38.720Z,58.90
2022-09-15T05:14:07.009Z,58.95
2022-09-15T05:16:34.288Z,58.68
2022-09-15T05:19:04.672Z,59.56
2022-09-15T05:21:33.026Z,59.06
2022-09-15T05:24:00.385Z,59.17
2022-09-15T05:26:29.922Z,58.85
2022-09-15T05:28:58.419Z,59.06
2022-09-15T05:31:31.920Z,58.94
2022-09-15T05:34:04.316Z,59.50
2022-09-15T05:36:33.698Z,60.01
2022-09-15T05:39:01.908Z,61.12
2022-09-15T05:41:29.971Z,59.91
2022-09-15T05:43:58.985Z,59.73
2022-09-15T05:46:29.147Z,58.61
2022-09-15T05:48:58.942Z,58.97
2022-09-15T05:51:27.333Z,57.77
2022-09-15T05:53:55.261Z,58.67
2022-09-15T05:56:23.894Z,58.16
2022-09-15T05:58:52.229Z,58.88
2022-09-15T06:01:25.697Z,58.71
2022-09-15T06:03:55.267Z,58.81
2022-09-15T06:06:25.917Z,58.72
2022-09-15T06:08:58.940Z,58.70
2022-09-15T06:11:31.064Z,58.68
2022-09-15T06:14:03.237Z,58.62
2022-09-15T06:16:35.176Z,58.61
2022-09-15T06:19:03.806Z,59.00
2022-09-15T06:21:33.555Z,57.59
2022-09-15T06:24:07.222Z,57.10
2022-09-15T06:26:34.979Z,57.20
2022-09-15T06:29:05.646Z,57.91
2022-09-15T06:31:35.778Z,57.36
2022-09-15T06:34:04.038Z,57.17
2022-09-15T06:36:32.348Z,56.72
2022-09-15T06:39:00.114Z,57.56
2022-09-15T06:41:52.571Z,57.68
2022-09-15T06:44:21.214Z,60.03
2022-09-15T06:46:49.866Z,60.54
2022-09-15T06:49:17.762Z,61.06
2022-09-15T06:51:45.587Z,61.82
2022-09-15T06:54:15.984Z,62.23
2022-09-15T06:56:43.957Z,62.96
2022-09-15T06:59:13.765Z,65.85
2022-09-15T07:01:42.390Z,63.45
2022-09-15T07:04:10.458Z,62.65
2022-09-15T07:06:40.248Z,66.36
2022-09-15T07:09:10.692Z,70.37
2022-09-15T07:11:38.338Z,70.63
2022-09-15T07:14:06.305Z,72.53
2022-09-15T07:16:33.974Z,70.69
2022-09-15T07:19:07.664Z,72.35
2022-09-15T07:21:36.292Z,73.06
2022-09-15T07:24:09.723Z,77.91
2022-09-15T07:26:38.404Z,78.92
2022-09-15T07:29:07.289Z,77.38
2022-09-15T07:31:46.791Z,78.52
2022-09-15T07:34:14.974Z,79.52
2022-09-15T07:36:55.344Z,76.57
2022-09-15T07:39:23.276Z,73.42
2022-09-15T07:41:51.196Z,75.19
2022-09-15T07:44:18.630Z,75.71
2022-09-15T07:46:46.305Z,75.41
2022-09-15T07:49:13.704Z,79.23
2022-09-15T07:51:41.020Z,81.74
2022-09-15T07:54:08.727Z,76.83
2022-09-15T07:56:36.112Z,76.67
2022-09-15T07:59:03.380Z,77.37
2022-09-15T08:01:30.879Z,71.95
2022-09-15T08:03:59.054Z,74.65
2022-09-15T08:06:27.729Z,78.94
2022-09-15T08:09:00.392Z,80.27
2022-09-15T08:11:29.314Z,80.11
2022-09-15T08:13:59.791Z,80.22
2022-09-15T08:16:27.334Z,79.10
2022-09-15T08:18:55.448Z,79.07
2022-09-15T08:21:24.040Z,79.46
2022-09-15T08:23:57.250Z,80.15
2022-09-15T08:26:27.646Z,78.50
2022-09-15T08:28:55.632Z,79.29
2022-09-15T08:31:24.572Z,78.57
2022-09-15T08:33:55.528Z,77.94
2022-09-15T08:36:27.612Z,80.80
2022-09-15T08:38:58.704Z,78.89
2022-09-15T08:41:41.692Z,77.56
2022-09-15T08:55:54.606Z,79.59
2022-09-15T08:58:30.047Z,81.39
2022-09-15T09:21:54.069Z,80.64
2022-09-15T09:24:44.883Z,75.97
2022-09-15T09:27:21.484Z,79.51
2022-09-15T09:30:01.937Z,77.21
2022-09-15T09:36:02.443Z,78.25
2022-09-15T09:38:41.402Z,78.16
2022-09-15T09:43:54.286Z,76.37
2022-09-15T09:46:22.283Z,77.45
2022-09-15T09:49:04.310Z,79.96
2022-09-15T09:54:18.057Z,73.70
2022-09-15T09:56:49.926Z,75.59
2022-09-15T09:59:49.434Z,79.37
2022-09-15T10:02:24.730Z,79.55
2022-09-15T10:05:20.081Z,79.88
2022-09-15T10:07:47.787Z,78.28
2022-09-15T10:10:32.155Z,72.44
2022-09-15T10:13:03.648Z,74.81
2022-09-15T10:15:36.301Z,76.25
2022-09-15T10:18:04.072Z,75.05
2022-09-15T10:20:47.223Z,74.11
2022-09-15T10:26:21.337Z,70.29
2022-09-15T10:29:18.771Z,75.19
2022-09-15T10:31:46.651Z,73.96
2022-09-15T10:34:32.099Z,74.29
2022-09-15T10:40:00.173Z,78.53
2022-09-15T10:45:40.254Z,75.59
2022-09-15T10:48:37.313Z,76.35
2022-09-15T10:51:58.620Z,77.09
2022-09-15T11:09:43.966Z,76.18
2022-09-15T11:39:02.135Z,77.58
2022-09-15T11:41:52.424Z,77.30
2022-09-15T11:58:29.443Z,75.86
2022-09-15T12:04:04.567Z,74.49
2022-09-15T12:09:36.736Z,75.75
2022-09-15T12:12:15.508Z,74.81
2022-09-15T12:14:47.940Z,72.42
2022-09-15T12:28:54.730Z,71.16
2022-09-15T12:36:48.098Z,70.86
2022-09-15T12:45:24.157Z,67.51
2022-09-15T12:48:03.031Z,68.42
2022-09-15T12:50:36.756Z,67.22
2022-09-15T12:53:21.541Z,66.93
2022-09-15T12:55:59.406Z,66.07
2022-09-15T12:58:39.849Z,64.62
2022-09-15T13:06:37.845Z,65.80
2022-09-15T13:11:50.224Z,66.99
2022-09-15T13:14:33.746Z,66.40
2022-09-15T13:17:25.337Z,65.23
2022-09-15T13:19:59.844Z,63.32
2022-09-15T13:22:36.804Z,60.89
2022-09-15T14:16:13.033Z,43.19
2022-09-15T14:22:35.730Z,43.82
2022-09-15T14:25:43.585Z,44.26
2022-09-15T14:29:04.350Z,42.80
2022-09-15T14:32:48.864Z,42.88
2022-09-15T14:35:48.923Z,41.22
2022-09-15T14:38:58.082Z,41.19
2022-09-15T14:41:42.969Z,40.32
2022-09-15T14:47:43.923Z,41.06
2022-09-15T14:51:25.100Z,40.90
2022-09-15T14:54:22.406Z,40.68
2022-09-15T15:00:27.670Z,41.68
2022-09-15T15:10:57.134Z,43.74
2022-09-15T15:18:42.780Z,44.83
2022-09-15T16:07:19.755Z,45.56
2022-09-15T16:09:59.873Z,43.75
2022-09-15T16:12:31.910Z,43.91
2022-09-15T16:15:21.435Z,43.20
2022-09-15T16:18:27.789Z,42.19
2022-09-15T16:22:47.489Z,43.02
2022-09-15T17:01:57.231Z,51.00
2022-09-15T17:18:55.546Z,52.18
2022-09-15T17:21:57.426Z,52.51
2022-09-15T17:29:11.226Z,54.65
2022-09-15T17:32:06.322Z,53.53
2022-09-15T17:34:52.624Z,54.00
2022-09-15T17:37:33.966Z,52.73
2022-09-15T17:43:29.712Z,54.90
2022-09-15T17:46:29.614Z,54.13
2022-09-15T17:49:06.677Z,53.21
2022-09-15T17:51:57.036Z,53.83
2022-09-15T17:54:48.669Z,54.65
2022-09-15T17:58:01.707Z,54.20
2022-09-15T18:01:18.945Z,54.53
2022-09-15T18:04:30.609Z,55.77
2022-09-15T18:10:59.156Z,54.06
2022-09-15T18:14:00.322Z,54.94
2022-09-15T18:17:17.488Z,54.89
2022-09-15T18:20:16.442Z,54.81
2022-09-15T18:23:28.697Z,54.66
2022-09-15T18:26:46.679Z,55.40
2022-09-15T18:29:44.531Z,54.80
2022-09-15T18:32:17.879Z,55.50
2022-09-15T18:34:59.140Z,56.52
2022-09-15T18:37:59.459Z,57.42
2022-09-15T18:40:49.177Z,58.89
2022-09-15T18:44:34.845Z,58.66
2022-09-15T18:47:21.473Z,57.97
2022-09-15T18:50:11.129Z,58.57
2022-09-15T18:53:03.000Z,59.17
2022-09-15T18:55:48.680Z,58.42
2022-09-15T18:58:58.186Z,57.56
2022-09-15T19:01:56.897Z,57.52
2022-09-15T19:04:52.222Z,57.90
2022-09-15T19:07:49.112Z,58.78
2022-09-15T19:10:35.774Z,58.09
2022-09-15T19:13:40.012Z,57.64
2022-09-15T19:16:57.930Z,58.67
2022-09-15T19:20:01.389Z,58.94
2022-09-15T19:22:45.303Z,60.09
2022-09-15T19:26:07.606Z,60.87
2022-09-15T19:28:54.527Z,61.74
2022-09-15T19:31:43.430Z,64.20
2022-09-15T19:34:23.600Z,64.02
2022-09-15T19:37:22.575Z,63.85
2022-09-15T19:40:04.996Z,64.17
2022-09-15T19:42:46.811Z,63.05
2022-09-15T19:45:46.294Z,63.20
2022-09-15T19:48:13.674Z,64.13
2022-09-15T19:50:44.369Z,63.23
2022-09-15T19:53:11.837Z,62.30
2022-09-15T19:55:39.234Z,64.47
2022-09-15T19:58:06.782Z,66.31
2022-09-15T20:00:34.112Z,67.07
2022-09-15T20:03:01.560Z,65.76
2022-09-15T20:05:29.261Z,65.54
2022-09-15T20:07:58.123Z,65.89
2022-09-15T20:10:25.443Z,66.00
2022-09-15T20:12:52.850Z,67.30
2022-09-15T20:15:20.389Z,66.65
2022-09-15T20:17:47.690Z,66.41
2022-09-15T20:20:15.144Z,66.65
2022-09-15T20:22:42.513Z,68.04
2022-09-15T20:25:09.816Z,69.16
2022-09-15T20:27:38.182Z,69.38
2022-09-15T20:30:07.763Z,70.21
2022-09-15T20:32:35.611Z,69.95
2022-09-15T20:35:03.549Z,69.76
2022-09-15T20:37:35.259Z,70.53
2022-09-15T20:40:09.790Z,71.28
2022-09-15T20:42:37.124Z,71.89
2022-09-15T20:45:08.737Z,71.89
2022-09-15T20:47:36.493Z,72.41
2022-09-15T20:50:04.147Z,72.52
2022-09-15T20:52:37.406Z,72.88
2022-09-15T20:55:10.820Z,71.71
2022-09-15T20:57:38.180Z,73.37
2022-09-15T21:00:08.061Z,72.75
2022-09-15T21:02:35.718Z,73.52
2022-09-15T21:05:03.501Z,73.82
2022-09-15T21:07:31.573Z,73.23
2022-09-15T21:09:58.857Z,70.10
2022-09-15T21:12:26.295Z,69.88
2022-09-15T21:14:53.570Z,71.90
2022-09-15T21:17:21.800Z,72.83
2022-09-15T21:19:49.229Z,74.62
2022-09-15T21:22:16.491Z,73.91
2022-09-15T21:24:43.826Z,74.48
2022-09-15T21:27:26.974Z,74.61
2022-09-15T21:29:54.788Z,71.37
2022-09-15T21:32:22.227Z,70.85
2022-09-15T21:34:49.523Z,72.65
2022-09-15T21:37:16.847Z,72.42
2022-09-15T21:39:44.231Z,72.13
2022-09-15T21:42:12.963Z,73.59
2022-09-15T21:44:40.257Z,72.89
2022-09-15T21:47:07.517Z,74.61
2022-09-15T21:49:34.809Z,75.00
2022-09-15T21:52:02.595Z,76.57
2022-09-15T21:54:31.499Z,76.08
2022-09-15T21:56:59.017Z,75.92
2022-09-15T21:59:26.454Z,75.43
2022-09-15T22:01:54.381Z,76.31
2022-09-15T22:04:21.762Z,77.12
2022-09-15T22:06:50.203Z,76.69
2022-09-15T22:09:22.533Z,76.00
2022-09-15T22:11:49.808Z,75.52
2022-09-15T22:14:17.222Z,75.95
2022-09-15T22:16:44.695Z,74.77
2022-09-15T22:19:12.778Z,75.18
2022-09-15T22:21:41.905Z,76.28
2022-09-15T22:24:13.586Z,75.25
2022-09-15T22:26:43.355Z,74.82
2022-09-15T22:29:11.493Z,75.31
2022-09-15T22:31:38.977Z,76.84
2022-09-15T22:34:06.401Z,77.85
2022-09-15T22:36:34.505Z,76.99
2022-09-15T22:39:05.241Z,77.61
2022-09-15T22:41:38.691Z,77.73
2022-09-15T22:44:17.782Z,77.00
2022-09-15T22:46:45.516Z,76.66
2022-09-15T22:49:12.799Z,76.04
2022-09-15T22:51:40.157Z,75.47
2022-09-15T22:54:07.560Z,75.59
2022-09-15T22:56:34.893Z,76.07
2022-09-15T22:59:02.649Z,74.12
2022-09-15T23:01:31.071Z,74.42
2022-09-15T23:04:02.356Z,73.17
2022-09-15T23:06:33.899Z,74.56
2022-09-15T23:09:08.223Z,74.82
2022-09-15T23:11:39.807Z,74.73
2022-09-15T23:14:15.275Z,74.85
2022-09-15T23:16:44.213Z,73.64
2022-09-15T23:19:13.626Z,73.34
2022-09-15T23:21:41.346Z,73.05
2022-09-15T23:24:08.784Z,73.85
2022-09-15T23:26:36.551Z,74.57
2022-09-15T23:29:03.847Z,75.05
2022-09-15T23:31:31.250Z,73.77
2022-09-15T23:33:58.596Z,73.87
2022-09-15T23:36:25.914Z,75.02
2022-09-15T23:38:53.340Z,74.10
2022-09-15T23:41:20.843Z,72.69
2022-09-15T23:43:48.266Z,72.93
2022-09-15T23:46:16.135Z,73.52
2022-09-15T23:48:43.847Z,72.86
2022-09-15T23:51:11.361Z,71.99
2022-09-15T23:53:38.834Z,71.65
2022-09-15T23:56:06.512Z,72.05
2022-09-15T23:58:33.983Z,72.35
